createdAt,value
2019-03-03T00:02:03.238Z,7.70
2019-03-03T00:09:22.591Z,7.70
2019-03-03T00:11:52.602Z,7.60
2019-03-03T00:14:22.610Z,7.60
2019-03-03T00:16:53.059Z,7.60
2019-03-03T00:19:23.383Z,7.60
2019-03-03T00:21:53.950Z,7.60
2019-03-03T00:24:24.057Z,7.60
2019-03-03T00:26:54.160Z,7.50
2019-03-03T00:29:24.627Z,7.50
2019-03-03T00:31:55.027Z,7.50
2019-03-03T00:34:25.150Z,7.50
2019-03-03T00:37:20.462Z,7.50
2019-03-03T00:40:18.452Z,7.50
2019-03-03T00:42:56.428Z,7.50
2019-03-03T00:45:41.504Z,7.50
2019-03-03T00:48:30.240Z,7.50
2019-03-03T00:51:24.903Z,7.50
2019-03-03T00:54:12.388Z,7.50
2019-03-03T00:56:50.067Z,7.50
2019-03-03T00:59:25.643Z,7.60
2019-03-03T01:02:07.836Z,7.70
2019-03-03T01:04:48.698Z,7.70
2019-03-03T01:07:41.046Z,7.70
2019-03-03T01:10:32.647Z,7.70
2019-03-03T01:13:14.963Z,7.70
2019-03-03T01:16:07.251Z,7.60
2019-03-03T01:19:01.896Z,7.60
2019-03-03T01:21:37.479Z,7.60
2019-03-03T01:24:23.950Z,7.60
2019-03-03T01:26:53.965Z,7.60
2019-03-03T01:29:24.331Z,7.70
2019-03-03T01:31:55.499Z,7.60
2019-03-03T01:34:25.863Z,7.60
2019-03-03T01:36:55.499Z,7.60
2019-03-03T01:39:26.203Z,7.70
2019-03-03T01:41:56.533Z,7.60
2019-03-03T01:44:26.375Z,7.60
2019-03-03T01:46:55.705Z,7.60
2019-03-03T01:49:25.744Z,7.70
2019-03-03T01:51:55.880Z,7.60
2019-03-03T01:54:26.199Z,7.60
2019-03-03T01:56:56.544Z,7.60
2019-03-03T01:59:27.328Z,7.60
2019-03-03T02:01:56.985Z,7.60
2019-03-03T02:04:27.293Z,7.60
2019-03-03T02:06:57.679Z,7.60
2019-03-03T02:09:27.946Z,7.60
2019-03-03T02:11:58.695Z,7.60
2019-03-03T02:14:29.612Z,7.60
2019-03-03T02:16:59.688Z,7.60
2019-03-03T02:19:30.175Z,7.60
2019-03-03T02:22:00.534Z,7.70
2019-03-03T02:24:30.966Z,7.70
2019-03-03T02:27:01.446Z,7.70
2019-03-03T02:29:31.463Z,7.70
2019-03-03T02:32:04.132Z,7.80
2019-03-03T02:34:34.163Z,7.80
2019-03-03T02:37:03.871Z,7.80
2019-03-03T02:39:34.381Z,7.80
2019-03-03T02:42:04.100Z,7.80
2019-03-03T02:44:33.417Z,7.80
2019-03-03T02:47:03.512Z,7.80
2019-03-03T02:49:33.124Z,7.90
2019-03-03T02:52:03.281Z,7.90
2019-03-03T02:54:33.970Z,7.90
2019-03-03T02:57:04.073Z,7.90
2019-03-03T02:59:34.377Z,7.90
2019-03-03T03:02:09.460Z,8.00
2019-03-03T03:04:39.506Z,7.90
2019-03-03T03:07:20.262Z,7.90
2019-03-03T03:10:15.034Z,7.80
2019-03-03T03:13:04.109Z,7.80
2019-03-03T03:15:56.517Z,7.90
2019-03-03T03:18:51.293Z,7.90
2019-03-03T03:21:42.980Z,7.80
2019-03-03T03:24:20.474Z,7.90
2019-03-03T03:27:03.342Z,7.80
2019-03-03T03:29:47.846Z,7.60
2019-03-03T03:32:35.065Z,7.50
2019-03-03T03:35:10.511Z,7.60
2019-03-03T03:38:05.285Z,7.70
2019-03-03T03:41:09.728Z,7.70
2019-03-03T03:44:01.454Z,7.90
2019-03-03T03:46:43.401Z,8.00
2019-03-03T03:49:44.694Z,8.00
2019-03-03T03:52:29.967Z,8.00
2019-03-03T03:55:17.392Z,8.10
2019-03-03T03:58:09.443Z,8.10
2019-03-03T04:01:02.297Z,8.10
2019-03-03T04:03:57.199Z,8.10
2019-03-03T04:06:48.986Z,8.20
2019-03-03T04:09:26.048Z,8.20
2019-03-03T04:12:17.815Z,8.30
2019-03-03T04:15:10.077Z,8.20
2019-03-03T04:17:56.990Z,8.30
2019-03-03T04:20:52.168Z,8.30
2019-03-03T04:23:39.639Z,8.30
2019-03-03T04:26:23.156Z,8.30
2019-03-03T04:29:24.391Z,8.20
2019-03-03T04:32:13.556Z,8.20
2019-03-03T04:35:17.653Z,8.10
2019-03-03T04:37:55.552Z,8.00
2019-03-03T04:40:47.209Z,8.10
2019-03-03T04:43:31.043Z,8.00
2019-03-03T04:46:29.033Z,8.00
2019-03-03T04:49:23.803Z,8.00
2019-03-03T04:52:06.531Z,7.90
2019-03-03T04:54:52.723Z,7.90
2019-03-03T04:58:00.104Z,7.90
2019-03-03T05:00:48.153Z,7.90
2019-03-03T05:03:23.401Z,7.80
2019-03-03T05:06:05.727Z,7.80
2019-03-03T05:08:43.074Z,7.80
2019-03-03T05:11:49.347Z,7.80
2019-03-03T05:14:25.574Z,7.80
2019-03-03T05:17:02.083Z,7.80
2019-03-03T05:19:39.820Z,7.70
2019-03-03T05:22:10.170Z,7.70
2019-03-03T05:24:40.333Z,7.60
2019-03-03T05:27:10.408Z,7.70
2019-03-03T05:29:39.696Z,7.60
2019-03-03T05:32:09.741Z,7.70
2019-03-03T05:34:39.784Z,7.70
2019-03-03T05:37:10.177Z,7.80
2019-03-03T05:39:40.181Z,7.80
2019-03-03T05:42:09.858Z,7.70
2019-03-03T05:44:40.146Z,7.60
2019-03-03T05:47:10.930Z,7.60
2019-03-03T05:49:41.643Z,7.60
2019-03-03T05:52:11.575Z,7.60
2019-03-03T05:54:41.559Z,7.60
2019-03-03T05:57:11.161Z,7.50
2019-03-03T05:59:41.198Z,7.50
2019-03-03T06:02:11.199Z,7.60
2019-03-03T06:04:41.960Z,7.50
2019-03-03T06:07:11.955Z,7.50
2019-03-03T06:09:41.590Z,7.50
2019-03-03T06:12:11.288Z,7.50
2019-03-03T06:14:41.288Z,7.50
2019-03-03T06:17:12.872Z,7.50
2019-03-03T06:19:42.949Z,7.40
2019-03-03T06:22:13.280Z,7.50
2019-03-03T06:24:43.286Z,7.40
2019-03-03T06:27:13.896Z,7.50
2019-03-03T06:29:47.028Z,7.50
2019-03-03T06:32:17.310Z,7.60
2019-03-03T06:34:47.377Z,7.60
2019-03-03T06:38:09.934Z,7.60
2019-03-03T06:40:40.000Z,7.60
2019-03-03T06:43:10.924Z,7.70
2019-03-03T06:45:40.908Z,7.70
2019-03-03T06:49:07.552Z,7.70
2019-03-03T06:51:58.061Z,7.80
2019-03-03T06:54:49.321Z,7.90
2019-03-03T06:57:47.707Z,8.00
2019-03-03T07:00:18.929Z,8.10
2019-03-03T07:02:52.919Z,8.20
2019-03-03T07:05:43.190Z,8.20
2019-03-03T07:08:42.718Z,8.20
2019-03-03T07:11:15.301Z,8.20
2019-03-03T07:13:44.950Z,8.20
2019-03-03T07:16:14.990Z,8.30
2019-03-03T07:18:45.904Z,8.30
2019-03-03T07:21:15.198Z,8.40
2019-03-03T07:23:45.607Z,8.50
2019-03-03T07:26:16.380Z,8.60
2019-03-03T07:28:46.878Z,8.60
2019-03-03T07:31:17.530Z,8.70
2019-03-03T07:33:52.301Z,8.80
2019-03-03T07:36:22.054Z,8.80
2019-03-03T07:38:52.728Z,8.90
2019-03-03T07:41:22.765Z,8.90
2019-03-03T07:43:52.906Z,8.80
2019-03-03T07:46:23.344Z,8.80
2019-03-03T07:48:54.249Z,8.80
2019-03-03T07:51:28.929Z,8.80
2019-03-03T07:53:58.743Z,8.80
2019-03-03T07:57:30.428Z,8.80
2019-03-03T07:59:19.887Z,8.90
2019-03-03T08:01:49.552Z,9.00
2019-03-03T08:04:19.765Z,9.10
2019-03-03T08:06:50.015Z,9.20
2019-03-03T08:09:20.447Z,9.30
2019-03-03T08:11:50.463Z,9.50
2019-03-03T08:14:29.848Z,9.50
2019-03-03T08:17:02.781Z,9.60
2019-03-03T08:19:36.035Z,9.60
2019-03-03T08:22:33.213Z,9.60
2019-03-03T08:25:11.738Z,9.50
2019-03-03T08:27:42.459Z,9.60
2019-03-03T08:30:13.126Z,9.60
2019-03-03T08:32:43.862Z,9.70
2019-03-03T08:35:19.009Z,9.70
2019-03-03T08:37:55.428Z,9.80
2019-03-03T08:40:28.447Z,9.80
2019-03-03T08:43:16.477Z,9.80
2019-03-03T08:45:57.947Z,9.90
2019-03-03T08:48:46.527Z,9.80
2019-03-03T08:51:35.190Z,9.80
2019-03-03T08:54:33.555Z,9.80
2019-03-03T08:57:21.841Z,9.80
2019-03-03T09:00:04.347Z,9.90
2019-03-03T09:02:41.224Z,9.90
2019-03-03T09:05:25.289Z,9.90
2019-03-03T09:08:03.259Z,10.00
2019-03-03T09:10:39.710Z,10.10
2019-03-03T09:13:17.287Z,10.10
2019-03-03T09:15:59.506Z,10.10
2019-03-03T09:18:51.677Z,10.20
2019-03-03T09:22:04.807Z,10.20
2019-03-03T09:25:02.798Z,10.30
2019-03-03T09:28:07.576Z,10.40
2019-03-03T09:30:55.546Z,10.50
2019-03-03T09:33:44.591Z,10.60
2019-03-03T09:36:39.199Z,10.70
2019-03-03T09:39:28.270Z,10.80
2019-03-03T09:42:23.076Z,10.70
2019-03-03T09:45:18.562Z,10.90
2019-03-03T09:48:05.942Z,11.00
2019-03-03T09:50:57.910Z,11.00
2019-03-03T09:53:56.200Z,11.30
2019-03-03T09:56:50.696Z,11.50
2019-03-03T09:59:38.131Z,11.50
2019-03-03T10:02:20.015Z,11.60
2019-03-03T10:05:24.418Z,11.90
2019-03-03T10:08:13.006Z,11.90
2019-03-03T10:10:51.843Z,11.90
2019-03-03T10:13:53.918Z,11.70
2019-03-03T10:16:31.471Z,11.60
2019-03-03T10:19:08.674Z,11.70
2019-03-03T10:21:54.403Z,11.90
2019-03-03T10:24:42.622Z,12.10
2019-03-03T10:27:40.128Z,12.20
2019-03-03T10:30:27.696Z,12.20
2019-03-03T10:33:17.248Z,11.90
2019-03-03T10:36:04.923Z,11.90
2019-03-03T10:38:59.849Z,11.70
2019-03-03T10:42:07.271Z,11.70
2019-03-03T10:45:14.455Z,11.80
2019-03-03T10:47:52.050Z,11.60
2019-03-03T10:50:38.835Z,11.60
2019-03-03T10:53:37.227Z,11.70
2019-03-03T10:56:22.713Z,11.70
2019-03-03T10:59:11.372Z,11.70
2019-03-03T11:02:06.174Z,11.70
2019-03-03T11:05:14.680Z,11.60
2019-03-03T11:08:06.399Z,11.80
2019-03-03T11:10:57.800Z,12.00
2019-03-03T11:13:43.616Z,12.10
2019-03-03T11:16:42.831Z,12.20
2019-03-03T11:19:31.675Z,12.10
2019-03-03T11:22:23.338Z,12.20
2019-03-03T11:25:10.953Z,12.30
2019-03-03T11:27:55.088Z,12.10
2019-03-03T11:30:33.205Z,11.80
2019-03-03T11:33:21.249Z,11.80
2019-03-03T11:36:22.068Z,11.60
2019-03-03T11:39:15.562Z,11.70
2019-03-03T11:42:11.067Z,11.90
2019-03-03T11:44:51.300Z,12.10
2019-03-03T11:47:49.719Z,12.20
2019-03-03T11:50:27.304Z,12.10
2019-03-03T11:53:22.327Z,12.30
2019-03-03T11:56:17.106Z,12.50
2019-03-03T11:59:21.022Z,12.60
2019-03-03T12:02:10.055Z,12.40
2019-03-03T12:04:51.971Z,12.20
2019-03-03T12:07:39.185Z,12.30
2019-03-03T12:10:26.635Z,12.20
2019-03-03T12:13:21.260Z,12.30
2019-03-03T12:16:25.047Z,12.40
2019-03-03T12:19:23.166Z,12.50
2019-03-03T12:22:10.540Z,12.50
2019-03-03T12:25:08.464Z,12.50
2019-03-03T12:27:56.007Z,12.50
2019-03-03T12:30:50.517Z,12.60
2019-03-03T12:33:39.414Z,12.80
2019-03-03T12:36:36.804Z,13.10
2019-03-03T12:39:39.831Z,13.10
2019-03-03T12:42:27.547Z,12.90
2019-03-03T12:45:27.962Z,12.60
2019-03-03T12:48:26.776Z,12.40
2019-03-03T12:51:34.026Z,12.50
2019-03-03T12:54:13.813Z,12.30
2019-03-03T12:56:51.174Z,12.10
2019-03-03T12:59:40.041Z,12.10
2019-03-03T13:02:42.148Z,12.10
2019-03-03T13:05:22.262Z,12.20
2019-03-03T13:08:12.259Z,12.20
2019-03-03T13:11:10.117Z,11.90
2019-03-03T13:13:58.409Z,11.90
2019-03-03T13:16:37.688Z,11.80
2019-03-03T13:19:41.312Z,12.00
2019-03-03T13:22:42.055Z,12.00
2019-03-03T13:25:50.031Z,12.10
2019-03-03T13:28:39.820Z,12.30
2019-03-03T13:31:29.396Z,12.30
2019-03-03T13:34:06.300Z,12.40
2019-03-03T13:36:53.517Z,12.50
2019-03-03T13:39:41.839Z,12.60
2019-03-03T13:42:30.179Z,12.80
2019-03-03T13:45:00.299Z,12.90
2019-03-03T13:47:30.336Z,12.90
2019-03-03T13:50:00.448Z,12.80
2019-03-03T13:52:30.926Z,12.70
2019-03-03T13:55:00.600Z,12.70
2019-03-03T13:57:31.543Z,12.60
2019-03-03T14:00:01.669Z,12.60
2019-03-03T14:02:32.135Z,12.40
2019-03-03T14:05:03.116Z,12.30
2019-03-03T14:07:33.824Z,12.20
2019-03-03T14:10:04.992Z,12.10
2019-03-03T14:12:35.545Z,12.10
2019-03-03T14:15:07.866Z,12.20
2019-03-03T14:17:37.658Z,12.20
2019-03-03T14:20:10.674Z,12.10
2019-03-03T14:22:40.742Z,12.20
2019-03-03T14:25:10.823Z,12.10
2019-03-03T14:27:41.007Z,12.20
2019-03-03T14:30:13.663Z,12.20
2019-03-03T14:32:44.070Z,12.20
2019-03-03T14:35:15.383Z,12.20
2019-03-03T14:37:46.121Z,12.10
2019-03-03T14:40:17.551Z,12.10
2019-03-03T14:42:48.621Z,12.20
2019-03-03T14:45:19.000Z,12.20
2019-03-03T14:47:49.261Z,12.40
2019-03-03T14:50:19.248Z,12.40
2019-03-03T14:52:49.446Z,12.40
2019-03-03T14:55:20.785Z,12.30
2019-03-03T14:57:51.199Z,12.40
2019-03-03T15:00:26.180Z,12.40
2019-03-03T15:02:56.934Z,12.40
2019-03-03T15:05:28.208Z,12.40
2019-03-03T15:07:58.320Z,12.30
2019-03-03T15:10:29.473Z,12.20
2019-03-03T15:12:59.589Z,12.20
2019-03-03T15:15:30.622Z,12.30
2019-03-03T15:18:01.105Z,12.40
2019-03-03T15:20:30.939Z,12.30
2019-03-03T15:23:01.721Z,12.30
2019-03-03T15:25:32.164Z,12.10
2019-03-03T15:28:03.131Z,12.00
2019-03-03T15:30:32.814Z,11.90
2019-03-03T15:33:04.135Z,11.90
2019-03-03T15:35:34.763Z,11.90
2019-03-03T15:38:04.781Z,11.90
2019-03-03T15:40:35.555Z,11.90
2019-03-03T15:43:06.074Z,12.10
2019-03-03T15:45:36.151Z,12.10
2019-03-03T15:48:06.484Z,12.10
2019-03-03T15:50:36.915Z,11.90
2019-03-03T15:53:07.341Z,11.90
2019-03-03T15:55:37.371Z,11.80
2019-03-03T15:58:08.307Z,11.70
2019-03-03T16:00:37.874Z,11.60
2019-03-03T16:03:08.096Z,11.60
2019-03-03T16:05:38.739Z,11.50
2019-03-03T16:08:09.610Z,11.50
2019-03-03T16:10:39.983Z,11.50
2019-03-03T16:13:09.732Z,11.50
2019-03-03T16:15:39.785Z,11.50
2019-03-03T16:18:10.159Z,11.50
2019-03-03T16:20:40.443Z,11.50
2019-03-03T16:23:10.685Z,11.40
2019-03-03T16:25:41.169Z,11.40
2019-03-03T16:28:10.949Z,11.40
2019-03-03T16:30:40.542Z,11.30
2019-03-03T16:33:19.796Z,11.30
2019-03-03T16:35:43.159Z,11.20
2019-03-03T16:38:14.107Z,11.10
2019-03-03T16:40:46.137Z,11.00
2019-03-03T16:43:16.580Z,10.90
2019-03-03T16:45:47.102Z,11.00
2019-03-03T16:48:17.125Z,10.90
2019-03-03T16:50:47.526Z,10.80
2019-03-03T16:53:17.900Z,10.80
2019-03-03T16:55:47.886Z,10.70
2019-03-03T16:58:18.624Z,10.60
2019-03-03T17:00:48.642Z,10.50
2019-03-03T17:03:19.351Z,10.40
2019-03-03T17:05:49.430Z,10.30
2019-03-03T17:08:19.200Z,10.30
2019-03-03T17:10:48.916Z,10.40
2019-03-03T17:13:19.321Z,10.40
2019-03-03T17:15:49.337Z,10.40
2019-03-03T17:18:19.467Z,10.40
2019-03-03T17:20:49.959Z,10.40
2019-03-03T17:23:20.027Z,10.30
2019-03-03T17:25:50.918Z,10.30
2019-03-03T17:28:20.977Z,10.30
2019-03-03T17:30:51.404Z,10.30
2019-03-03T17:33:21.538Z,10.30
2019-03-03T17:35:51.641Z,10.30
2019-03-03T17:38:22.183Z,10.20
2019-03-03T17:40:52.710Z,10.20
2019-03-03T17:43:22.456Z,10.10
2019-03-03T17:45:52.620Z,10.10
2019-03-03T17:48:23.048Z,10.10
2019-03-03T17:50:53.304Z,10.00
2019-03-03T17:53:22.970Z,9.90
2019-03-03T17:55:53.307Z,9.70
2019-03-03T17:58:24.245Z,9.60
2019-03-03T18:00:54.884Z,9.60
2019-03-03T18:03:24.908Z,9.50
2019-03-03T18:05:54.605Z,9.60
2019-03-03T18:08:24.754Z,9.60
2019-03-03T18:10:55.612Z,9.60
2019-03-03T18:13:26.077Z,9.70
2019-03-03T18:15:56.262Z,9.90
2019-03-03T18:18:27.195Z,9.80
2019-03-03T18:20:57.561Z,9.80
2019-03-03T18:23:29.612Z,9.60
2019-03-03T18:25:59.552Z,9.50
2019-03-03T18:28:29.263Z,9.50
2019-03-03T18:30:59.588Z,9.40
2019-03-03T18:33:29.758Z,9.40
2019-03-03T18:36:00.340Z,9.20
2019-03-03T18:38:30.454Z,9.00
2019-03-03T18:41:01.336Z,8.90
2019-03-03T18:43:31.422Z,8.80
2019-03-03T18:49:51.197Z,8.70
2019-03-03T18:55:59.217Z,8.70
2019-03-03T18:58:29.304Z,8.90
2019-03-03T19:00:59.798Z,9.10
2019-03-03T19:03:29.654Z,9.20
2019-03-03T19:06:00.070Z,9.30
2019-03-03T19:08:30.526Z,9.40
2019-03-03T19:11:00.679Z,9.60
2019-03-03T19:13:55.514Z,9.80
2019-03-03T19:16:30.017Z,9.80
2019-03-03T19:19:00.615Z,9.80
2019-03-03T19:22:15.953Z,9.70
2019-03-03T19:24:46.458Z,9.60
2019-03-03T19:30:49.727Z,9.60
2019-03-03T19:33:26.941Z,9.50
2019-03-03T19:35:57.624Z,9.60
2019-03-03T19:38:29.798Z,9.50
2019-03-03T19:41:00.352Z,9.60
2019-03-03T19:43:30.811Z,9.70
2019-03-03T19:46:00.980Z,9.70
2019-03-03T19:49:05.742Z,9.70
2019-03-03T19:51:54.331Z,9.60
2019-03-03T19:54:24.042Z,9.60
2019-03-03T19:56:54.483Z,9.60
2019-03-03T19:59:24.649Z,9.60
2019-03-03T20:01:55.067Z,9.50
2019-03-03T20:04:25.586Z,9.50
2019-03-03T20:06:56.370Z,9.50
2019-03-03T20:09:26.200Z,9.50
2019-03-03T20:11:56.288Z,9.60
2019-03-03T20:14:26.308Z,9.70
2019-03-03T20:16:56.861Z,9.80
2019-03-03T20:19:27.048Z,9.80
2019-03-03T20:21:58.717Z,9.80
2019-03-03T20:24:28.851Z,9.80
2019-03-03T20:26:59.669Z,9.80
2019-03-03T20:29:30.321Z,9.80
2019-03-03T20:35:18.168Z,9.90
2019-03-03T20:37:47.992Z,9.80
2019-03-03T20:40:18.610Z,9.70
2019-03-03T20:42:49.609Z,9.80
2019-03-03T20:45:21.696Z,9.80
2019-03-03T20:47:51.838Z,9.80
2019-03-03T20:50:22.955Z,9.80
2019-03-03T20:52:53.525Z,9.80
2019-03-03T20:55:24.050Z,9.90
2019-03-03T20:57:54.150Z,9.90
2019-03-03T21:00:26.093Z,9.80
2019-03-03T21:02:56.967Z,9.90
2019-03-03T21:05:27.368Z,10.00
2019-03-03T21:07:58.112Z,10.00
2019-03-03T21:10:28.125Z,10.00
2019-03-03T21:12:58.532Z,10.00
2019-03-03T21:15:29.257Z,10.00
2019-03-03T21:17:59.674Z,10.10
2019-03-03T21:20:29.833Z,10.20
2019-03-03T21:22:59.986Z,10.10
2019-03-03T21:25:30.406Z,10.10
2019-03-03T21:28:01.309Z,10.10
2019-03-03T21:30:31.166Z,10.10
2019-03-03T21:33:01.854Z,10.10
2019-03-03T21:35:32.414Z,10.10
2019-03-03T21:38:02.611Z,10.20
2019-03-03T21:40:32.559Z,10.20
2019-03-03T21:43:03.919Z,10.10
2019-03-03T21:50:07.779Z,10.00
2019-03-03T21:52:39.353Z,9.90
2019-03-03T21:55:24.714Z,9.90
2019-03-03T21:57:54.927Z,9.90
2019-03-03T22:00:29.850Z,10.00
2019-03-03T22:03:00.434Z,10.10
2019-03-03T22:05:30.983Z,10.30
2019-03-03T22:08:01.535Z,10.30
2019-03-03T22:10:32.702Z,10.40
2019-03-03T22:13:06.750Z,10.40
2019-03-03T22:15:36.980Z,10.50
2019-03-03T22:18:06.753Z,10.70
2019-03-03T22:20:36.844Z,10.80
2019-03-03T22:23:06.914Z,10.90
2019-03-03T22:25:36.979Z,10.90
2019-03-03T22:28:07.171Z,11.00
2019-03-03T22:30:37.561Z,11.10
2019-03-03T22:33:07.896Z,11.20
2019-03-03T22:35:38.269Z,11.40
2019-03-03T22:38:27.540Z,11.50
2019-03-03T22:40:56.937Z,11.50
2019-03-03T22:43:27.108Z,11.50
2019-03-03T22:45:57.531Z,11.50
2019-03-03T22:48:27.656Z,11.50
2019-03-03T22:50:58.379Z,11.60
2019-03-03T22:53:29.116Z,11.60
2019-03-03T22:55:58.405Z,11.60
2019-03-03T22:58:28.544Z,11.60
2019-03-03T23:01:20.188Z,11.60
2019-03-03T23:04:26.723Z,11.60
2019-03-03T23:07:02.908Z,11.40
2019-03-03T23:10:15.782Z,11.40
2019-03-03T23:13:07.083Z,11.50
2019-03-03T23:16:41.048Z,11.60
2019-03-03T23:20:23.117Z,11.60
2019-03-03T23:23:34.953Z,11.70
2019-03-03T23:26:05.266Z,11.70
2019-03-03T23:28:35.615Z,11.80
2019-03-03T23:31:05.700Z,11.70
2019-03-03T23:33:36.218Z,11.60
2019-03-03T23:36:06.450Z,11.70
2019-03-03T23:38:36.897Z,11.70
2019-03-03T23:41:06.938Z,12.00
2019-03-03T23:43:37.613Z,12.00
2019-03-03T23:46:07.564Z,12.10
2019-03-03T23:48:37.902Z,12.10
2019-03-03T23:51:08.252Z,12.20
2019-03-03T23:53:38.461Z,12.30
2019-03-03T23:56:08.630Z,12.40
2019-03-03T23:58:39.405Z,12.60
